sensor_id;sensor_type;location;lat;lon;timestamp;temperature;humidity
76172;DHT22;64929;51.178;4.138;2023-03-21T00:00:53;11.00;83.20
76172;DHT22;64929;51.178;4.138;2023-03-21T00:03:19;11.10;82.90
76172;DHT22;64929;51.178;4.138;2023-03-21T00:05:45;11.30;81.70
76172;DHT22;64929;51.178;4.138;2023-03-21T00:08:14;11.40;81.20
76172;DHT22;64929;51.178;4.138;2023-03-21T00:10:40;11.30;81.30
76172;DHT22;64929;51.178;4.138;2023-03-21T00:13:06;11.50;80.90
76172;DHT22;64929;51.178;4.138;2023-03-21T00:15:31;11.30;81.00
76172;DHT22;64929;51.178;4.138;2023-03-21T00:17:57;11.10;82.10
76172;DHT22;64929;51.178;4.138;2023-03-21T00:20:30;11.00;82.40
76172;DHT22;64929;51.178;4.138;2023-03-21T00:23:01;11.00;82.60
76172;DHT22;64929;51.178;4.138;2023-03-21T00:25:27;10.80;83.10
76172;DHT22;64929;51.178;4.138;2023-03-21T00:27:53;11.00;82.90
76172;DHT22;64929;51.178;4.138;2023-03-21T00:30:19;11.10;82.40
76172;DHT22;64929;51.178;4.138;2023-03-21T00:32:45;11.10;82.60
76172;DHT22;64929;51.178;4.138;2023-03-21T00:35:10;11.10;82.30
76172;DHT22;64929;51.178;4.138;2023-03-21T00:37:36;11.20;81.70
76172;DHT22;64929;51.178;4.138;2023-03-21T00:40:02;11.10;81.80
76172;DHT22;64929;51.178;4.138;2023-03-21T00:42:33;11.00;82.10
76172;DHT22;64929;51.178;4.138;2023-03-21T00:44:58;11.10;82.10
76172;DHT22;64929;51.178;4.138;2023-03-21T00:47:24;11.10;81.90
76172;DHT22;64929;51.178;4.138;2023-03-21T00:49:50;11.10;81.50
76172;DHT22;64929;51.178;4.138;2023-03-21T00:52:15;11.20;81.80
76172;DHT22;64929;51.178;4.138;2023-03-21T00:54:41;11.20;81.50
76172;DHT22;64929;51.178;4.138;2023-03-21T00:57:06;11.40;80.90
76172;DHT22;64929;51.178;4.138;2023-03-21T00:59:32;11.10;82.10
76172;DHT22;64929;51.178;4.138;2023-03-21T01:01:57;11.10;82.70
76172;DHT22;64929;51.178;4.138;2023-03-21T01:04:24;11.20;82.00
76172;DHT22;64929;51.178;4.138;2023-03-21T01:06:51;11.30;81.60
76172;DHT22;64929;51.178;4.138;2023-03-21T01:09:17;11.30;81.60
76172;DHT22;64929;51.178;4.138;2023-03-21T01:11:43;11.30;81.70
76172;DHT22;64929;51.178;4.138;2023-03-21T01:14:09;11.20;81.30
76172;DHT22;64929;51.178;4.138;2023-03-21T01:16:35;11.30;81.40
76172;DHT22;64929;51.178;4.138;2023-03-21T01:19:01;11.30;80.80
76172;DHT22;64929;51.178;4.138;2023-03-21T01:21:27;11.30;80.70
76172;DHT22;64929;51.178;4.138;2023-03-21T01:23:52;11.30;80.70
76172;DHT22;64929;51.178;4.138;2023-03-21T01:26:18;11.40;80.70
76172;DHT22;64929;51.178;4.138;2023-03-21T01:28:44;11.40;80.70
76172;DHT22;64929;51.178;4.138;2023-03-21T01:31:11;11.40;80.80
76172;DHT22;64929;51.178;4.138;2023-03-21T01:33:36;11.40;80.70
76172;DHT22;64929;51.178;4.138;2023-03-21T01:36:02;11.30;80.50
76172;DHT22;64929;51.178;4.138;2023-03-21T01:38:28;11.40;80.60
76172;DHT22;64929;51.178;4.138;2023-03-21T01:40:54;11.50;79.60
76172;DHT22;64929;51.178;4.138;2023-03-21T01:43:25;11.40;80.30
76172;DHT22;64929;51.178;4.138;2023-03-21T01:46:27;11.40;80.40
76172;DHT22;64929;51.178;4.138;2023-03-21T01:48:47;11.50;80.10
76172;DHT22;64929;51.178;4.138;2023-03-21T01:51:13;11.40;80.00
76172;DHT22;64929;51.178;4.138;2023-03-21T01:53:38;11.50;79.70
76172;DHT22;64929;51.178;4.138;2023-03-21T01:56:10;11.50;79.50
76172;DHT22;64929;51.178;4.138;2023-03-21T01:58:36;11.40;79.90
76172;DHT22;64929;51.178;4.138;2023-03-21T02:01:02;11.60;79.20
76172;DHT22;64929;51.178;4.138;2023-03-21T02:03:28;11.60;79.00
76172;DHT22;64929;51.178;4.138;2023-03-21T02:08:31;11.50;79.10
76172;DHT22;64929;51.178;4.138;2023-03-21T02:10:57;11.60;78.90
76172;DHT22;64929;51.178;4.138;2023-03-21T02:13:24;11.60;78.90
76172;DHT22;64929;51.178;4.138;2023-03-21T02:16:00;11.50;79.20
76172;DHT22;64929;51.178;4.138;2023-03-21T02:21:02;11.40;79.70
76172;DHT22;64929;51.178;4.138;2023-03-21T02:23:40;11.30;80.10
76172;DHT22;64929;51.178;4.138;2023-03-21T02:32:01;11.30;79.80
76172;DHT22;64929;51.178;4.138;2023-03-21T02:34:32;11.50;79.00
76172;DHT22;64929;51.178;4.138;2023-03-21T02:44:37;11.60;78.50
76172;DHT22;64929;51.178;4.138;2023-03-21T02:47:12;11.60;78.20
76172;DHT22;64929;51.178;4.138;2023-03-21T02:52:19;11.70;78.00
76172;DHT22;64929;51.178;4.138;2023-03-21T02:54:45;11.50;78.30
76172;DHT22;64929;51.178;4.138;2023-03-21T02:57:13;11.50;78.50
76172;DHT22;64929;51.178;4.138;2023-03-21T02:59:38;11.50;79.10
76172;DHT22;64929;51.178;4.138;2023-03-21T03:02:05;11.40;78.80
76172;DHT22;64929;51.178;4.138;2023-03-21T03:04:31;11.30;79.00
76172;DHT22;64929;51.178;4.138;2023-03-21T03:07:11;11.30;79.20
76172;DHT22;64929;51.178;4.138;2023-03-21T03:17:19;11.20;79.30
76172;DHT22;64929;51.178;4.138;2023-03-21T03:22:13;11.20;79.30
76172;DHT22;64929;51.178;4.138;2023-03-21T03:27:07;11.20;79.40
76172;DHT22;64929;51.178;4.138;2023-03-21T03:29:36;11.30;79.20
76172;DHT22;64929;51.178;4.138;2023-03-21T03:34:49;11.10;79.80
76172;DHT22;64929;51.178;4.138;2023-03-21T03:37:16;11.00;80.00
76172;DHT22;64929;51.178;4.138;2023-03-21T03:39:54;11.00;80.20
76172;DHT22;64929;51.178;4.138;2023-03-21T03:42:27;11.00;80.20
76172;DHT22;64929;51.178;4.138;2023-03-21T03:44:53;11.00;80.30
76172;DHT22;64929;51.178;4.138;2023-03-21T03:47:23;11.10;79.70
76172;DHT22;64929;51.178;4.138;2023-03-21T03:49:54;11.10;79.70
76172;DHT22;64929;51.178;4.138;2023-03-21T03:52:28;11.10;79.40
76172;DHT22;64929;51.178;4.138;2023-03-21T03:54:55;11.10;79.60
76172;DHT22;64929;51.178;4.138;2023-03-21T03:57:21;11.10;79.20
76172;DHT22;64929;51.178;4.138;2023-03-21T03:59:46;11.10;79.40
76172;DHT22;64929;51.178;4.138;2023-03-21T04:02:12;11.20;79.30
76172;DHT22;64929;51.178;4.138;2023-03-21T04:04:39;11.10;79.40
76172;DHT22;64929;51.178;4.138;2023-03-21T04:07:06;11.20;79.30
76172;DHT22;64929;51.178;4.138;2023-03-21T04:09:32;11.20;79.10
76172;DHT22;64929;51.178;4.138;2023-03-21T04:11:58;11.20;78.90
76172;DHT22;64929;51.178;4.138;2023-03-21T04:14:23;11.30;78.60
76172;DHT22;64929;51.178;4.138;2023-03-21T04:16:49;11.30;78.40
76172;DHT22;64929;51.178;4.138;2023-03-21T04:19:16;11.10;79.10
76172;DHT22;64929;51.178;4.138;2023-03-21T04:21:42;11.20;79.20
76172;DHT22;64929;51.178;4.138;2023-03-21T04:24:08;11.30;78.40
76172;DHT22;64929;51.178;4.138;2023-03-21T04:26:34;11.40;78.40
76172;DHT22;64929;51.178;4.138;2023-03-21T04:29:00;11.50;78.00
76172;DHT22;64929;51.178;4.138;2023-03-21T04:31:27;11.70;77.10
76172;DHT22;64929;51.178;4.138;2023-03-21T04:34:04;11.70;76.90
76172;DHT22;64929;51.178;4.138;2023-03-21T04:36:34;11.60;77.30
76172;DHT22;64929;51.178;4.138;2023-03-21T04:39:03;11.50;77.50
76172;DHT22;64929;51.178;4.138;2023-03-21T04:41:29;11.50;77.50
76172;DHT22;64929;51.178;4.138;2023-03-21T04:43:55;11.40;78.20
76172;DHT22;64929;51.178;4.138;2023-03-21T04:46:21;11.40;77.90
76172;DHT22;64929;51.178;4.138;2023-03-21T04:48:47;11.40;78.30
76172;DHT22;64929;51.178;4.138;2023-03-21T04:51:13;11.30;79.00
76172;DHT22;64929;51.178;4.138;2023-03-21T04:53:39;11.30;79.10
76172;DHT22;64929;51.178;4.138;2023-03-21T04:56:06;11.20;79.80
76172;DHT22;64929;51.178;4.138;2023-03-21T04:58:32;11.30;79.60
76172;DHT22;64929;51.178;4.138;2023-03-21T05:00:58;11.40;79.30
76172;DHT22;64929;51.178;4.138;2023-03-21T05:03:24;11.50;79.40
76172;DHT22;64929;51.178;4.138;2023-03-21T05:05:49;11.40;80.10
76172;DHT22;64929;51.178;4.138;2023-03-21T05:08:15;11.40;80.70
76172;DHT22;64929;51.178;4.138;2023-03-21T05:10:41;11.30;81.60
76172;DHT22;64929;51.178;4.138;2023-03-21T05:13:06;11.40;81.70
76172;DHT22;64929;51.178;4.138;2023-03-21T05:15:32;11.40;82.10
76172;DHT22;64929;51.178;4.138;2023-03-21T05:17:57;11.20;82.60
76172;DHT22;64929;51.178;4.138;2023-03-21T05:20:24;11.10;83.30
76172;DHT22;64929;51.178;4.138;2023-03-21T05:22:49;11.00;84.10
76172;DHT22;64929;51.178;4.138;2023-03-21T05:25:16;11.10;84.40
76172;DHT22;64929;51.178;4.138;2023-03-21T05:27:45;11.20;83.70
76172;DHT22;64929;51.178;4.138;2023-03-21T05:30:18;11.10;84.00
76172;DHT22;64929;51.178;4.138;2023-03-21T05:32:45;11.20;84.10
76172;DHT22;64929;51.178;4.138;2023-03-21T05:35:10;11.20;83.40
76172;DHT22;64929;51.178;4.138;2023-03-21T05:37:36;11.30;83.20
76172;DHT22;64929;51.178;4.138;2023-03-21T05:40:03;11.30;82.60
76172;DHT22;64929;51.178;4.138;2023-03-21T05:42:30;11.20;83.60
76172;DHT22;64929;51.178;4.138;2023-03-21T05:44:56;11.10;83.80
76172;DHT22;64929;51.178;4.138;2023-03-21T05:47:21;11.10;84.30
76172;DHT22;64929;51.178;4.138;2023-03-21T05:49:47;11.10;84.30
76172;DHT22;64929;51.178;4.138;2023-03-21T05:52:14;11.10;84.00
76172;DHT22;64929;51.178;4.138;2023-03-21T05:54:40;11.10;84.40
76172;DHT22;64929;51.178;4.138;2023-03-21T05:57:05;10.90;86.30
76172;DHT22;64929;51.178;4.138;2023-03-21T05:59:31;10.90;86.90
76172;DHT22;64929;51.178;4.138;2023-03-21T06:01:57;11.00;86.80
76172;DHT22;64929;51.178;4.138;2023-03-21T06:04:22;11.00;86.70
76172;DHT22;64929;51.178;4.138;2023-03-21T06:06:48;11.10;86.20
76172;DHT22;64929;51.178;4.138;2023-03-21T06:09:16;11.10;85.80
76172;DHT22;64929;51.178;4.138;2023-03-21T06:11:43;11.10;85.40
76172;DHT22;64929;51.178;4.138;2023-03-21T06:14:10;11.20;84.90
76172;DHT22;64929;51.178;4.138;2023-03-21T06:16:36;10.90;84.60
76172;DHT22;64929;51.178;4.138;2023-03-21T06:19:01;11.00;85.20
76172;DHT22;64929;51.178;4.138;2023-03-21T06:21:27;11.00;84.80
76172;DHT22;64929;51.178;4.138;2023-03-21T06:23:52;11.00;84.90
76172;DHT22;64929;51.178;4.138;2023-03-21T06:26:18;11.00;84.80
76172;DHT22;64929;51.178;4.138;2023-03-21T06:28:48;10.90;86.40
76172;DHT22;64929;51.178;4.138;2023-03-21T06:31:13;10.90;87.10
76172;DHT22;64929;51.178;4.138;2023-03-21T06:33:39;10.90;86.80
76172;DHT22;64929;51.178;4.138;2023-03-21T06:36:05;10.90;86.60
76172;DHT22;64929;51.178;4.138;2023-03-21T06:38:30;10.90;87.20
76172;DHT22;64929;51.178;4.138;2023-03-21T06:40:56;10.90;87.40
76172;DHT22;64929;51.178;4.138;2023-03-21T06:43:22;11.10;86.50
76172;DHT22;64929;51.178;4.138;2023-03-21T06:45:47;11.00;85.80
76172;DHT22;64929;51.178;4.138;2023-03-21T06:48:13;11.20;86.10
76172;DHT22;64929;51.178;4.138;2023-03-21T06:50:39;11.20;86.00
76172;DHT22;64929;51.178;4.138;2023-03-21T06:53:07;11.10;86.60
76172;DHT22;64929;51.178;4.138;2023-03-21T06:55:33;11.10;86.70
76172;DHT22;64929;51.178;4.138;2023-03-21T06:57:59;11.10;86.00
76172;DHT22;64929;51.178;4.138;2023-03-21T07:00:25;11.00;87.10
76172;DHT22;64929;51.178;4.138;2023-03-21T07:02:50;11.00;87.40
76172;DHT22;64929;51.178;4.138;2023-03-21T07:05:16;11.00;86.80
76172;DHT22;64929;51.178;4.138;2023-03-21T07:07:42;11.10;87.10
76172;DHT22;64929;51.178;4.138;2023-03-21T07:10:07;11.10;87.20
76172;DHT22;64929;51.178;4.138;2023-03-21T07:12:33;11.10;87.10
76172;DHT22;64929;51.178;4.138;2023-03-21T07:15:00;11.10;86.60
76172;DHT22;64929;51.178;4.138;2023-03-21T07:17:26;11.20;86.30
76172;DHT22;64929;51.178;4.138;2023-03-21T07:19:51;11.10;86.40
76172;DHT22;64929;51.178;4.138;2023-03-21T07:22:17;11.20;86.00
76172;DHT22;64929;51.178;4.138;2023-03-21T07:24:42;11.30;85.70
76172;DHT22;64929;51.178;4.138;2023-03-21T07:27:08;11.10;86.00
76172;DHT22;64929;51.178;4.138;2023-03-21T07:29:34;11.00;86.30
76172;DHT22;64929;51.178;4.138;2023-03-21T07:32:00;11.10;86.90
76172;DHT22;64929;51.178;4.138;2023-03-21T07:34:25;11.10;86.40
76172;DHT22;64929;51.178;4.138;2023-03-21T07:36:55;11.10;86.10
76172;DHT22;64929;51.178;4.138;2023-03-21T07:39:21;11.10;86.70
76172;DHT22;64929;51.178;4.138;2023-03-21T07:41:47;11.10;86.60
76172;DHT22;64929;51.178;4.138;2023-03-21T07:44:13;11.20;86.50
76172;DHT22;64929;51.178;4.138;2023-03-21T07:46:38;11.30;85.50
76172;DHT22;64929;51.178;4.138;2023-03-21T07:49:04;11.30;85.60
76172;DHT22;64929;51.178;4.138;2023-03-21T07:51:30;11.30;85.90
76172;DHT22;64929;51.178;4.138;2023-03-21T07:53:56;11.30;85.80
76172;DHT22;64929;51.178;4.138;2023-03-21T07:56:21;11.40;84.50
76172;DHT22;64929;51.178;4.138;2023-03-21T07:58:47;11.40;85.10
76172;DHT22;64929;51.178;4.138;2023-03-21T08:01:12;11.40;85.30
76172;DHT22;64929;51.178;4.138;2023-03-21T08:03:38;11.40;84.90
76172;DHT22;64929;51.178;4.138;2023-03-21T08:06:04;11.50;84.80
76172;DHT22;64929;51.178;4.138;2023-03-21T08:08:30;11.40;84.00
76172;DHT22;64929;51.178;4.138;2023-03-21T08:10:55;11.40;83.60
76172;DHT22;64929;51.178;4.138;2023-03-21T08:13:21;11.40;83.60
76172;DHT22;64929;51.178;4.138;2023-03-21T08:15:47;11.30;83.70
76172;DHT22;64929;51.178;4.138;2023-03-21T08:18:12;11.50;84.30
76172;DHT22;64929;51.178;4.138;2023-03-21T08:20:38;11.50;84.10
76172;DHT22;64929;51.178;4.138;2023-03-21T08:23:03;11.60;83.00
76172;DHT22;64929;51.178;4.138;2023-03-21T08:25:29;11.70;82.30
76172;DHT22;64929;51.178;4.138;2023-03-21T08:27:55;11.70;81.70
76172;DHT22;64929;51.178;4.138;2023-03-21T08:30:22;11.70;81.00
76172;DHT22;64929;51.178;4.138;2023-03-21T08:32:48;11.70;81.60
76172;DHT22;64929;51.178;4.138;2023-03-21T08:35:14;11.90;81.50
76172;DHT22;64929;51.178;4.138;2023-03-21T08:37:40;11.90;80.90
76172;DHT22;64929;51.178;4.138;2023-03-21T08:40:07;11.80;80.90
76172;DHT22;64929;51.178;4.138;2023-03-21T08:42:39;11.80;81.30
76172;DHT22;64929;51.178;4.138;2023-03-21T08:45:05;11.90;80.40
76172;DHT22;64929;51.178;4.138;2023-03-21T08:47:31;12.00;80.20
76172;DHT22;64929;51.178;4.138;2023-03-21T08:49:57;12.10;79.80
76172;DHT22;64929;51.178;4.138;2023-03-21T08:52:23;12.20;80.10
76172;DHT22;64929;51.178;4.138;2023-03-21T08:54:49;12.20;78.90
76172;DHT22;64929;51.178;4.138;2023-03-21T08:57:14;12.30;79.20
76172;DHT22;64929;51.178;4.138;2023-03-21T08:59:40;12.40;79.00
76172;DHT22;64929;51.178;4.138;2023-03-21T09:02:06;12.40;78.60
76172;DHT22;64929;51.178;4.138;2023-03-21T09:04:31;12.40;78.80
76172;DHT22;64929;51.178;4.138;2023-03-21T09:06:57;12.40;77.90
76172;DHT22;64929;51.178;4.138;2023-03-21T09:09:26;12.50;78.60
76172;DHT22;64929;51.178;4.138;2023-03-21T09:11:52;12.60;78.70
76172;DHT22;64929;51.178;4.138;2023-03-21T09:14:17;12.50;77.20
76172;DHT22;64929;51.178;4.138;2023-03-21T09:16:43;12.70;76.90
76172;DHT22;64929;51.178;4.138;2023-03-21T09:19:08;12.60;77.00
76172;DHT22;64929;51.178;4.138;2023-03-21T09:21:34;12.60;77.70
76172;DHT22;64929;51.178;4.138;2023-03-21T09:24:00;12.60;77.10
76172;DHT22;64929;51.178;4.138;2023-03-21T09:26:27;12.50;77.50
76172;DHT22;64929;51.178;4.138;2023-03-21T09:28:53;12.50;77.10
76172;DHT22;64929;51.178;4.138;2023-03-21T09:31:19;12.60;77.30
76172;DHT22;64929;51.178;4.138;2023-03-21T09:33:49;12.70;76.70
76172;DHT22;64929;51.178;4.138;2023-03-21T09:36:16;12.70;75.70
76172;DHT22;64929;51.178;4.138;2023-03-21T09:38:45;12.60;76.20
76172;DHT22;64929;51.178;4.138;2023-03-21T09:41:31;12.60;75.90
76172;DHT22;64929;51.178;4.138;2023-03-21T09:46:33;12.70;76.60
76172;DHT22;64929;51.178;4.138;2023-03-21T09:49:01;12.80;75.70
76172;DHT22;64929;51.178;4.138;2023-03-21T09:51:42;12.70;75.60
76172;DHT22;64929;51.178;4.138;2023-03-21T09:56:42;12.60;76.60
76172;DHT22;64929;51.178;4.138;2023-03-21T09:59:09;12.70;76.00
76172;DHT22;64929;51.178;4.138;2023-03-21T10:01:38;12.80;76.40
76172;DHT22;64929;51.178;4.138;2023-03-21T10:04:10;13.00;75.20
76172;DHT22;64929;51.178;4.138;2023-03-21T10:06:37;12.90;75.20
76172;DHT22;64929;51.178;4.138;2023-03-21T10:09:15;13.00;75.30
76172;DHT22;64929;51.178;4.138;2023-03-21T10:11:48;13.10;75.30
76172;DHT22;64929;51.178;4.138;2023-03-21T10:14:30;13.30;74.80
76172;DHT22;64929;51.178;4.138;2023-03-21T10:17:20;13.30;73.60
76172;DHT22;64929;51.178;4.138;2023-03-21T10:19:47;13.20;73.30
76172;DHT22;64929;51.178;4.138;2023-03-21T10:22:14;13.20;73.20
76172;DHT22;64929;51.178;4.138;2023-03-21T10:24:39;13.40;72.60
76172;DHT22;64929;51.178;4.138;2023-03-21T10:27:05;13.50;71.70
76172;DHT22;64929;51.178;4.138;2023-03-21T10:29:32;13.50;71.50
76172;DHT22;64929;51.178;4.138;2023-03-21T10:32:01;13.50;71.90
76172;DHT22;64929;51.178;4.138;2023-03-21T10:34:31;13.50;72.10
76172;DHT22;64929;51.178;4.138;2023-03-21T10:36:58;13.30;71.70
76172;DHT22;64929;51.178;4.138;2023-03-21T10:39:26;13.30;72.10
76172;DHT22;64929;51.178;4.138;2023-03-21T10:41:52;13.10;72.70
76172;DHT22;64929;51.178;4.138;2023-03-21T10:44:18;13.20;73.20
76172;DHT22;64929;51.178;4.138;2023-03-21T10:46:51;13.40;71.90
76172;DHT22;64929;51.178;4.138;2023-03-21T10:49:17;13.50;72.20
76172;DHT22;64929;51.178;4.138;2023-03-21T10:51:46;13.30;71.40
76172;DHT22;64929;51.178;4.138;2023-03-21T10:54:13;13.20;70.70
76172;DHT22;64929;51.178;4.138;2023-03-21T10:56:43;13.10;72.00
76172;DHT22;64929;51.178;4.138;2023-03-21T10:59:09;13.10;72.00
76172;DHT22;64929;51.178;4.138;2023-03-21T11:01:42;13.20;71.60
76172;DHT22;64929;51.178;4.138;2023-03-21T11:04:15;13.10;71.20
76172;DHT22;64929;51.178;4.138;2023-03-21T11:06:49;13.10;71.80
76172;DHT22;64929;51.178;4.138;2023-03-21T11:09:20;13.10;71.80
76172;DHT22;64929;51.178;4.138;2023-03-21T11:12:03;13.00;71.40
76172;DHT22;64929;51.178;4.138;2023-03-21T11:14:41;13.10;71.90
76172;DHT22;64929;51.178;4.138;2023-03-21T11:17:18;13.10;71.80
76172;DHT22;64929;51.178;4.138;2023-03-21T11:19:50;13.10;71.50
76172;DHT22;64929;51.178;4.138;2023-03-21T11:22:17;13.30;70.40
76172;DHT22;64929;51.178;4.138;2023-03-21T11:24:46;13.60;71.00
76172;DHT22;64929;51.178;4.138;2023-03-21T11:27:13;13.80;69.80
76172;DHT22;64929;51.178;4.138;2023-03-21T11:29:39;14.10;70.30
76172;DHT22;64929;51.178;4.138;2023-03-21T11:32:09;14.20;68.80
76172;DHT22;64929;51.178;4.138;2023-03-21T11:37:16;14.30;68.30
76172;DHT22;64929;51.178;4.138;2023-03-21T11:39:42;14.50;68.30
76172;DHT22;64929;51.178;4.138;2023-03-21T11:42:28;14.40;67.50
76172;DHT22;64929;51.178;4.138;2023-03-21T11:44:56;14.60;67.90
76172;DHT22;64929;51.178;4.138;2023-03-21T11:47:22;14.60;66.80
76172;DHT22;64929;51.178;4.138;2023-03-21T11:49:48;14.40;67.60
76172;DHT22;64929;51.178;4.138;2023-03-21T11:52:22;14.40;67.80
76172;DHT22;64929;51.178;4.138;2023-03-21T11:57:22;14.40;68.00
76172;DHT22;64929;51.178;4.138;2023-03-21T11:59:57;14.20;68.70
76172;DHT22;64929;51.178;4.138;2023-03-21T12:05:04;13.90;69.80
76172;DHT22;64929;51.178;4.138;2023-03-21T12:10:06;14.20;70.40
76172;DHT22;64929;51.178;4.138;2023-03-21T12:17:49;14.50;68.80
76172;DHT22;64929;51.178;4.138;2023-03-21T12:25:21;14.40;69.20
76172;DHT22;64929;51.178;4.138;2023-03-21T12:45:31;14.50;69.50
76172;DHT22;64929;51.178;4.138;2023-03-21T12:48:10;14.60;69.20
76172;DHT22;64929;51.178;4.138;2023-03-21T12:50:38;14.50;69.50
76172;DHT22;64929;51.178;4.138;2023-03-21T12:53:15;14.50;69.50
76172;DHT22;64929;51.178;4.138;2023-03-21T12:55:42;14.20;70.30
76172;DHT22;64929;51.178;4.138;2023-03-21T12:58:10;14.10;70.80
76172;DHT22;64929;51.178;4.138;2023-03-21T13:00:49;14.10;70.80
76172;DHT22;64929;51.178;4.138;2023-03-21T13:05:56;14.20;70.80
76172;DHT22;64929;51.178;4.138;2023-03-21T13:08:24;14.10;71.70
76172;DHT22;64929;51.178;4.138;2023-03-21T13:10:52;14.10;71.20
76172;DHT22;64929;51.178;4.138;2023-03-21T13:15:54;14.20;70.90
76172;DHT22;64929;51.178;4.138;2023-03-21T13:21:14;14.20;71.00
76172;DHT22;64929;51.178;4.138;2023-03-21T13:23:44;14.20;71.00
76172;DHT22;64929;51.178;4.138;2023-03-21T13:26:19;14.20;71.30
76172;DHT22;64929;51.178;4.138;2023-03-21T13:28:45;14.30;71.30
76172;DHT22;64929;51.178;4.138;2023-03-21T13:31:16;14.30;71.10
76172;DHT22;64929;51.178;4.138;2023-03-21T13:33:44;14.20;71.80
76172;DHT22;64929;51.178;4.138;2023-03-21T13:36:11;14.20;72.40
76172;DHT22;64929;51.178;4.138;2023-03-21T13:38:38;14.10;72.50
76172;DHT22;64929;51.178;4.138;2023-03-21T13:41:06;14.10;72.90
76172;DHT22;64929;51.178;4.138;2023-03-21T13:43:33;14.20;72.40
76172;DHT22;64929;51.178;4.138;2023-03-21T13:51:09;14.20;72.80
76172;DHT22;64929;51.178;4.138;2023-03-21T13:53:38;14.00;73.50
76172;DHT22;64929;51.178;4.138;2023-03-21T13:56:08;13.90;73.50
76172;DHT22;64929;51.178;4.138;2023-03-21T13:58:53;14.00;73.70
76172;DHT22;64929;51.178;4.138;2023-03-21T14:03:55;14.10;73.60
76172;DHT22;64929;51.178;4.138;2023-03-21T14:06:23;14.10;73.20
76172;DHT22;64929;51.178;4.138;2023-03-21T14:08:54;14.00;73.90
76172;DHT22;64929;51.178;4.138;2023-03-21T14:11:21;14.00;74.00
76172;DHT22;64929;51.178;4.138;2023-03-21T14:13:48;14.10;73.70
76172;DHT22;64929;51.178;4.138;2023-03-21T14:16:17;13.80;75.00
76172;DHT22;64929;51.178;4.138;2023-03-21T14:18:44;13.70;77.00
76172;DHT22;64929;51.178;4.138;2023-03-21T14:21:14;13.50;79.80
76172;DHT22;64929;51.178;4.138;2023-03-21T14:23:40;13.30;81.60
76172;DHT22;64929;51.178;4.138;2023-03-21T14:26:05;13.40;81.40
76172;DHT22;64929;51.178;4.138;2023-03-21T14:28:31;13.50;80.80
76172;DHT22;64929;51.178;4.138;2023-03-21T14:31:00;13.60;80.40
76172;DHT22;64929;51.178;4.138;2023-03-21T14:35:59;13.60;80.60
76172;DHT22;64929;51.178;4.138;2023-03-21T14:38:27;13.50;80.30
76172;DHT22;64929;51.178;4.138;2023-03-21T14:40:56;13.60;80.70
76172;DHT22;64929;51.178;4.138;2023-03-21T14:43:23;13.70;80.90
76172;DHT22;64929;51.178;4.138;2023-03-21T14:45:49;13.60;80.80
76172;DHT22;64929;51.178;4.138;2023-03-21T14:48:17;13.30;81.90
76172;DHT22;64929;51.178;4.138;2023-03-21T14:53:11;13.30;83.00
76172;DHT22;64929;51.178;4.138;2023-03-21T14:55:43;13.10;83.50
76172;DHT22;64929;51.178;4.138;2023-03-21T14:58:11;13.20;83.30
76172;DHT22;64929;51.178;4.138;2023-03-21T15:00:37;13.40;82.80
76172;DHT22;64929;51.178;4.138;2023-03-21T15:03:03;13.40;82.80
76172;DHT22;64929;51.178;4.138;2023-03-21T15:05:32;13.40;82.60
76172;DHT22;64929;51.178;4.138;2023-03-21T15:08:11;13.40;82.50
76172;DHT22;64929;51.178;4.138;2023-03-21T15:10:41;13.50;82.10
76172;DHT22;64929;51.178;4.138;2023-03-21T15:13:14;13.50;81.80
76172;DHT22;64929;51.178;4.138;2023-03-21T15:15:41;13.30;82.10
76172;DHT22;64929;51.178;4.138;2023-03-21T15:18:07;13.10;83.00
76172;DHT22;64929;51.178;4.138;2023-03-21T15:20:35;13.20;82.80
76172;DHT22;64929;51.178;4.138;2023-03-21T15:23:02;13.20;83.10
76172;DHT22;64929;51.178;4.138;2023-03-21T15:25:31;13.30;83.00
76172;DHT22;64929;51.178;4.138;2023-03-21T15:27:59;13.30;83.00
76172;DHT22;64929;51.178;4.138;2023-03-21T15:30:25;13.40;82.40
76172;DHT22;64929;51.178;4.138;2023-03-21T15:32:52;13.30;82.80
76172;DHT22;64929;51.178;4.138;2023-03-21T15:35:24;13.40;82.10
76172;DHT22;64929;51.178;4.138;2023-03-21T15:37:51;13.40;82.20
76172;DHT22;64929;51.178;4.138;2023-03-21T15:40:19;13.30;82.30
76172;DHT22;64929;51.178;4.138;2023-03-21T15:42:44;13.40;82.10
76172;DHT22;64929;51.178;4.138;2023-03-21T15:45:23;13.40;82.10
76172;DHT22;64929;51.178;4.138;2023-03-21T15:50:36;13.20;83.50
76172;DHT22;64929;51.178;4.138;2023-03-21T15:53:04;13.40;83.40
76172;DHT22;64929;51.178;4.138;2023-03-21T15:55:39;13.40;82.40
76172;DHT22;64929;51.178;4.138;2023-03-21T15:58:09;13.40;82.60
76172;DHT22;64929;51.178;4.138;2023-03-21T16:00:38;13.50;82.40
76172;DHT22;64929;51.178;4.138;2023-03-21T16:03:05;13.50;82.40
76172;DHT22;64929;51.178;4.138;2023-03-21T16:05:33;13.50;82.40
76172;DHT22;64929;51.178;4.138;2023-03-21T16:08:03;13.50;82.00
76172;DHT22;64929;51.178;4.138;2023-03-21T16:10:32;13.60;81.70
76172;DHT22;64929;51.178;4.138;2023-03-21T16:12:58;13.60;81.40
76172;DHT22;64929;51.178;4.138;2023-03-21T16:15:24;13.50;81.60
76172;DHT22;64929;51.178;4.138;2023-03-21T16:17:52;13.60;81.90
76172;DHT22;64929;51.178;4.138;2023-03-21T16:20:20;13.60;81.70
76172;DHT22;64929;51.178;4.138;2023-03-21T16:22:46;13.70;81.70
76172;DHT22;64929;51.178;4.138;2023-03-21T16:25:12;13.80;81.10
76172;DHT22;64929;51.178;4.138;2023-03-21T16:27:38;13.70;80.90
76172;DHT22;64929;51.178;4.138;2023-03-21T16:30:04;13.60;81.50
76172;DHT22;64929;51.178;4.138;2023-03-21T16:32:35;13.50;82.30
76172;DHT22;64929;51.178;4.138;2023-03-21T16:35:01;13.70;81.30
76172;DHT22;64929;51.178;4.138;2023-03-21T16:37:29;13.60;81.10
76172;DHT22;64929;51.178;4.138;2023-03-21T16:39:56;13.50;81.70
76172;DHT22;64929;51.178;4.138;2023-03-21T16:42:21;13.70;81.00
76172;DHT22;64929;51.178;4.138;2023-03-21T16:44:47;13.70;81.00
76172;DHT22;64929;51.178;4.138;2023-03-21T16:47:14;13.80;81.00
76172;DHT22;64929;51.178;4.138;2023-03-21T16:49:44;13.90;80.20
76172;DHT22;64929;51.178;4.138;2023-03-21T16:52:11;13.90;80.10
76172;DHT22;64929;51.178;4.138;2023-03-21T16:54:37;13.90;80.10
76172;DHT22;64929;51.178;4.138;2023-03-21T16:57:04;13.90;79.80
76172;DHT22;64929;51.178;4.138;2023-03-21T16:59:32;13.90;80.00
76172;DHT22;64929;51.178;4.138;2023-03-21T17:01:58;13.90;79.60
76172;DHT22;64929;51.178;4.138;2023-03-21T17:04:23;13.80;79.30
76172;DHT22;64929;51.178;4.138;2023-03-21T17:06:50;13.90;79.30
76172;DHT22;64929;51.178;4.138;2023-03-21T17:09:17;14.00;78.20
76172;DHT22;64929;51.178;4.138;2023-03-21T17:11:43;14.00;78.10
76172;DHT22;64929;51.178;4.138;2023-03-21T17:14:09;13.90;78.70
76172;DHT22;64929;51.178;4.138;2023-03-21T17:16:35;13.80;78.70